sensor_id;sensor_type;location;lat;lon;timestamp;temperature;humidity
71367;DHT22;60030;52.274;8.040;2023-03-05T00:02:04;5.60;99.90
71367;DHT22;60030;52.274;8.040;2023-03-05T00:04:32;5.70;99.90
71367;DHT22;60030;52.274;8.040;2023-03-05T00:06:59;5.70;99.90
71367;DHT22;60030;52.274;8.040;2023-03-05T00:09:26;5.70;99.90
71367;DHT22;60030;52.274;8.040;2023-03-05T00:11:53;5.70;99.90
71367;DHT22;60030;52.274;8.040;2023-03-05T00:14:20;5.70;99.90
71367;DHT22;60030;52.274;8.040;2023-03-05T00:16:48;5.80;99.90
71367;DHT22;60030;52.274;8.040;2023-03-05T00:19:15;5.70;99.90
71367;DHT22;60030;52.274;8.040;2023-03-05T00:21:42;5.70;99.90
71367;DHT22;60030;52.274;8.040;2023-03-05T00:24:11;5.70;99.90
71367;DHT22;60030;52.274;8.040;2023-03-05T00:26:39;5.80;99.90
71367;DHT22;60030;52.274;8.040;2023-03-05T00:29:08;5.80;99.90
71367;DHT22;60030;52.274;8.040;2023-03-05T00:31:36;5.80;99.90
71367;DHT22;60030;52.274;8.040;2023-03-05T00:34:06;5.90;99.90
71367;DHT22;60030;52.274;8.040;2023-03-05T00:36:37;5.90;99.90
71367;DHT22;60030;52.274;8.040;2023-03-05T00:39:05;5.80;99.90
71367;DHT22;60030;52.274;8.040;2023-03-05T00:41:32;5.80;99.90
71367;DHT22;60030;52.274;8.040;2023-03-05T00:43:59;5.70;99.90
71367;DHT22;60030;52.274;8.040;2023-03-05T00:46:26;5.60;99.90
71367;DHT22;60030;52.274;8.040;2023-03-05T00:48:54;5.70;99.90
71367;DHT22;60030;52.274;8.040;2023-03-05T00:51:22;5.70;99.90
71367;DHT22;60030;52.274;8.040;2023-03-05T00:53:50;5.80;99.90
71367;DHT22;60030;52.274;8.040;2023-03-05T00:56:17;5.70;99.90
71367;DHT22;60030;52.274;8.040;2023-03-05T00:58:44;5.70;99.90
71367;DHT22;60030;52.274;8.040;2023-03-05T01:01:12;5.70;99.90
71367;DHT22;60030;52.274;8.040;2023-03-05T01:03:39;5.60;99.90
71367;DHT22;60030;52.274;8.040;2023-03-05T01:06:09;5.60;99.90
71367;DHT22;60030;52.274;8.040;2023-03-05T01:08:38;5.70;99.90
71367;DHT22;60030;52.274;8.040;2023-03-05T01:11:06;5.70;99.90
71367;DHT22;60030;52.274;8.040;2023-03-05T01:13:33;5.70;99.90
71367;DHT22;60030;52.274;8.040;2023-03-05T01:16:01;5.70;99.90
71367;DHT22;60030;52.274;8.040;2023-03-05T01:18:28;5.50;99.90
71367;DHT22;60030;52.274;8.040;2023-03-05T01:20:55;5.40;99.90
71367;DHT22;60030;52.274;8.040;2023-03-05T01:23:22;5.40;99.90
71367;DHT22;60030;52.274;8.040;2023-03-05T01:25:53;5.50;99.90
71367;DHT22;60030;52.274;8.040;2023-03-05T01:28:21;5.50;99.90
71367;DHT22;60030;52.274;8.040;2023-03-05T01:30:48;5.50;99.90
71367;DHT22;60030;52.274;8.040;2023-03-05T01:33:15;5.60;99.90
71367;DHT22;60030;52.274;8.040;2023-03-05T01:35:45;5.50;99.90
71367;DHT22;60030;52.274;8.040;2023-03-05T01:38:12;5.40;99.90
71367;DHT22;60030;52.274;8.040;2023-03-05T01:40:40;5.40;99.90
71367;DHT22;60030;52.274;8.040;2023-03-05T01:43:22;5.40;99.90
71367;DHT22;60030;52.274;8.040;2023-03-05T01:46:27;5.40;99.90
71367;DHT22;60030;52.274;8.040;2023-03-05T01:48:59;5.50;99.90
71367;DHT22;60030;52.274;8.040;2023-03-05T01:51:29;5.40;99.90
71367;DHT22;60030;52.274;8.040;2023-03-05T01:53:58;5.30;99.90
71367;DHT22;60030;52.274;8.040;2023-03-05T01:56:27;5.30;99.90
71367;DHT22;60030;52.274;8.040;2023-03-05T01:58:56;5.20;99.90
71367;DHT22;60030;52.274;8.040;2023-03-05T02:01:31;5.30;99.90
71367;DHT22;60030;52.274;8.040;2023-03-05T02:04:00;5.30;99.90
71367;DHT22;60030;52.274;8.040;2023-03-05T02:06:28;5.30;99.90
71367;DHT22;60030;52.274;8.040;2023-03-05T02:08:55;5.30;99.90
71367;DHT22;60030;52.274;8.040;2023-03-05T02:11:22;5.30;99.90
71367;DHT22;60030;52.274;8.040;2023-03-05T02:13:50;5.30;99.90
71367;DHT22;60030;52.274;8.040;2023-03-05T02:16:19;5.20;99.90
71367;DHT22;60030;52.274;8.040;2023-03-05T02:18:46;5.30;99.90
71367;DHT22;60030;52.274;8.040;2023-03-05T02:21:25;5.40;99.90
71367;DHT22;60030;52.274;8.040;2023-03-05T02:23:53;5.40;99.90
71367;DHT22;60030;52.274;8.040;2023-03-05T02:26:21;5.40;99.90
71367;DHT22;60030;52.274;8.040;2023-03-05T02:28:49;5.40;99.90
71367;DHT22;60030;52.274;8.040;2023-03-05T02:31:19;5.30;99.90
71367;DHT22;60030;52.274;8.040;2023-03-05T02:33:53;5.50;99.90
71367;DHT22;60030;52.274;8.040;2023-03-05T02:36:24;5.50;99.90
71367;DHT22;60030;52.274;8.040;2023-03-05T02:38:52;5.40;99.90
71367;DHT22;60030;52.274;8.040;2023-03-05T02:41:22;5.40;99.90
71367;DHT22;60030;52.274;8.040;2023-03-05T02:43:50;5.40;99.90
71367;DHT22;60030;52.274;8.040;2023-03-05T02:46:17;5.20;99.90
71367;DHT22;60030;52.274;8.040;2023-03-05T02:48:44;5.20;99.90
71367;DHT22;60030;52.274;8.040;2023-03-05T02:51:13;5.10;99.90
71367;DHT22;60030;52.274;8.040;2023-03-05T02:53:44;5.10;99.90
71367;DHT22;60030;52.274;8.040;2023-03-05T02:56:11;5.00;99.90
71367;DHT22;60030;52.274;8.040;2023-03-05T02:58:38;5.10;99.90
71367;DHT22;60030;52.274;8.040;2023-03-05T03:01:05;5.20;99.90
71367;DHT22;60030;52.274;8.040;2023-03-05T03:03:32;5.20;99.90
71367;DHT22;60030;52.274;8.040;2023-03-05T03:05:59;5.40;99.90
71367;DHT22;60030;52.274;8.040;2023-03-05T03:08:26;5.30;99.90
71367;DHT22;60030;52.274;8.040;2023-03-05T03:10:55;5.20;99.90
71367;DHT22;60030;52.274;8.040;2023-03-05T03:13:22;5.20;99.90
71367;DHT22;60030;52.274;8.040;2023-03-05T03:15:49;5.30;99.90
71367;DHT22;60030;52.274;8.040;2023-03-05T03:18:16;5.40;99.90
71367;DHT22;60030;52.274;8.040;2023-03-05T03:20:43;5.40;99.90
71367;DHT22;60030;52.274;8.040;2023-03-05T03:23:10;5.30;99.90
71367;DHT22;60030;52.274;8.040;2023-03-05T03:25:37;5.30;99.90
71367;DHT22;60030;52.274;8.040;2023-03-05T03:28:06;5.20;99.90
71367;DHT22;60030;52.274;8.040;2023-03-05T03:30:33;5.20;99.90
71367;DHT22;60030;52.274;8.040;2023-03-05T03:33:00;5.30;99.90
71367;DHT22;60030;52.274;8.040;2023-03-05T03:35:27;5.00;99.90
71367;DHT22;60030;52.274;8.040;2023-03-05T03:37:54;5.10;99.90
71367;DHT22;60030;52.274;8.040;2023-03-05T03:40:21;5.10;99.90
71367;DHT22;60030;52.274;8.040;2023-03-05T03:42:50;5.20;99.90
71367;DHT22;60030;52.274;8.040;2023-03-05T03:45:19;5.20;99.90
71367;DHT22;60030;52.274;8.040;2023-03-05T03:47:47;5.10;99.90
71367;DHT22;60030;52.274;8.040;2023-03-05T03:50:14;5.20;99.90
71367;DHT22;60030;52.274;8.040;2023-03-05T03:52:41;5.20;99.90
71367;DHT22;60030;52.274;8.040;2023-03-05T03:55:09;5.10;99.90
71367;DHT22;60030;52.274;8.040;2023-03-05T03:57:36;5.20;99.90
71367;DHT22;60030;52.274;8.040;2023-03-05T04:00:04;5.20;99.90
71367;DHT22;60030;52.274;8.040;2023-03-05T04:02:39;5.30;99.90
71367;DHT22;60030;52.274;8.040;2023-03-05T04:05:07;5.30;99.90
71367;DHT22;60030;52.274;8.040;2023-03-05T04:07:34;5.20;99.90
71367;DHT22;60030;52.274;8.040;2023-03-05T04:10:02;5.30;99.90
71367;DHT22;60030;52.274;8.040;2023-03-05T04:12:30;5.10;99.90
71367;DHT22;60030;52.274;8.040;2023-03-05T04:14:57;5.00;99.90
71367;DHT22;60030;52.274;8.040;2023-03-05T04:17:24;5.00;99.90
71367;DHT22;60030;52.274;8.040;2023-03-05T04:19:52;5.00;99.90
71367;DHT22;60030;52.274;8.040;2023-03-05T04:22:20;5.00;99.90
71367;DHT22;60030;52.274;8.040;2023-03-05T04:24:47;4.90;99.90
71367;DHT22;60030;52.274;8.040;2023-03-05T04:27:14;5.00;99.90
71367;DHT22;60030;52.274;8.040;2023-03-05T04:29:41;4.90;99.90
71367;DHT22;60030;52.274;8.040;2023-03-05T04:32:08;5.00;99.90
71367;DHT22;60030;52.274;8.040;2023-03-05T04:34:36;4.80;99.90
71367;DHT22;60030;52.274;8.040;2023-03-05T04:37:05;5.00;99.90
71367;DHT22;60030;52.274;8.040;2023-03-05T04:39:32;5.00;99.90
71367;DHT22;60030;52.274;8.040;2023-03-05T04:41:59;5.00;99.90
71367;DHT22;60030;52.274;8.040;2023-03-05T04:44:26;4.90;99.90
71367;DHT22;60030;52.274;8.040;2023-03-05T04:46:53;5.00;99.90
71367;DHT22;60030;52.274;8.040;2023-03-05T04:49:20;5.10;99.90
71367;DHT22;60030;52.274;8.040;2023-03-05T04:51:47;5.10;99.90
71367;DHT22;60030;52.274;8.040;2023-03-05T04:54:15;5.10;99.90
71367;DHT22;60030;52.274;8.040;2023-03-05T04:56:42;5.10;99.90
71367;DHT22;60030;52.274;8.040;2023-03-05T04:59:09;5.10;99.90
71367;DHT22;60030;52.274;8.040;2023-03-05T05:01:36;5.00;99.90
71367;DHT22;60030;52.274;8.040;2023-03-05T05:04:03;4.90;99.90
71367;DHT22;60030;52.274;8.040;2023-03-05T05:06:31;5.00;99.90
71367;DHT22;60030;52.274;8.040;2023-03-05T05:08:58;5.10;99.90
71367;DHT22;60030;52.274;8.040;2023-03-05T05:11:26;5.10;99.90
71367;DHT22;60030;52.274;8.040;2023-03-05T05:13:53;5.10;99.90
71367;DHT22;60030;52.274;8.040;2023-03-05T05:16:20;5.00;99.90
71367;DHT22;60030;52.274;8.040;2023-03-05T05:18:47;5.10;99.90
71367;DHT22;60030;52.274;8.040;2023-03-05T05:21:14;5.20;99.90
71367;DHT22;60030;52.274;8.040;2023-03-05T05:23:43;5.10;99.90
71367;DHT22;60030;52.274;8.040;2023-03-05T05:26:13;5.10;99.90
71367;DHT22;60030;52.274;8.040;2023-03-05T05:28:42;5.20;99.90
71367;DHT22;60030;52.274;8.040;2023-03-05T05:31:11;5.00;99.90
71367;DHT22;60030;52.274;8.040;2023-03-05T05:33:38;5.00;99.90
71367;DHT22;60030;52.274;8.040;2023-03-05T05:36:07;4.90;99.90
71367;DHT22;60030;52.274;8.040;2023-03-05T05:38:34;5.00;99.90
71367;DHT22;60030;52.274;8.040;2023-03-05T05:41:03;5.00;99.90
71367;DHT22;60030;52.274;8.040;2023-03-05T05:43:31;4.90;99.90
71367;DHT22;60030;52.274;8.040;2023-03-05T05:46:00;4.90;99.90
71367;DHT22;60030;52.274;8.040;2023-03-05T05:48:27;5.00;99.90
71367;DHT22;60030;52.274;8.040;2023-03-05T05:50:54;5.10;99.90
71367;DHT22;60030;52.274;8.040;2023-03-05T05:53:21;5.20;99.90
71367;DHT22;60030;52.274;8.040;2023-03-05T05:55:48;5.20;99.90
71367;DHT22;60030;52.274;8.040;2023-03-05T05:58:16;5.20;99.90
71367;DHT22;60030;52.274;8.040;2023-03-05T06:00:43;5.00;99.90
71367;DHT22;60030;52.274;8.040;2023-03-05T06:03:11;5.10;99.90
71367;DHT22;60030;52.274;8.040;2023-03-05T06:05:40;5.10;99.90
71367;DHT22;60030;52.274;8.040;2023-03-05T06:08:07;5.20;99.90
71367;DHT22;60030;52.274;8.040;2023-03-05T06:10:34;5.10;99.90
71367;DHT22;60030;52.274;8.040;2023-03-05T06:13:01;5.10;99.90
71367;DHT22;60030;52.274;8.040;2023-03-05T06:15:28;5.00;99.90
71367;DHT22;60030;52.274;8.040;2023-03-05T06:17:55;4.90;99.90
71367;DHT22;60030;52.274;8.040;2023-03-05T06:20:23;4.90;99.90
71367;DHT22;60030;52.274;8.040;2023-03-05T06:22:50;5.00;99.90
71367;DHT22;60030;52.274;8.040;2023-03-05T06:25:18;5.10;99.90
71367;DHT22;60030;52.274;8.040;2023-03-05T06:27:45;5.10;99.90
71367;DHT22;60030;52.274;8.040;2023-03-05T06:30:12;4.90;99.90
71367;DHT22;60030;52.274;8.040;2023-03-05T06:32:39;5.00;99.90
71367;DHT22;60030;52.274;8.040;2023-03-05T06:35:07;5.10;99.90
71367;DHT22;60030;52.274;8.040;2023-03-05T06:37:35;5.20;99.90
71367;DHT22;60030;52.274;8.040;2023-03-05T06:40:03;5.00;99.90
71367;DHT22;60030;52.274;8.040;2023-03-05T06:42:32;5.00;99.90
71367;DHT22;60030;52.274;8.040;2023-03-05T06:44:59;5.10;99.90
71367;DHT22;60030;52.274;8.040;2023-03-05T06:47:26;5.20;99.90
71367;DHT22;60030;52.274;8.040;2023-03-05T06:49:53;5.10;99.90
71367;DHT22;60030;52.274;8.040;2023-03-05T06:52:20;5.20;99.90
71367;DHT22;60030;52.274;8.040;2023-03-05T06:54:49;5.20;99.90
71367;DHT22;60030;52.274;8.040;2023-03-05T06:57:16;5.20;99.90
71367;DHT22;60030;52.274;8.040;2023-03-05T06:59:43;5.20;99.90
71367;DHT22;60030;52.274;8.040;2023-03-05T07:02:10;5.20;99.90
71367;DHT22;60030;52.274;8.040;2023-03-05T07:04:38;5.20;99.90
71367;DHT22;60030;52.274;8.040;2023-03-05T07:07:05;5.30;99.90
71367;DHT22;60030;52.274;8.040;2023-03-05T07:09:32;5.40;99.90
71367;DHT22;60030;52.274;8.040;2023-03-05T07:12:01;5.50;99.90
71367;DHT22;60030;52.274;8.040;2023-03-05T07:14:28;5.50;99.90
71367;DHT22;60030;52.274;8.040;2023-03-05T07:16:55;5.50;99.90
71367;DHT22;60030;52.274;8.040;2023-03-05T07:19:22;5.40;99.90
71367;DHT22;60030;52.274;8.040;2023-03-05T07:21:49;5.40;99.90
71367;DHT22;60030;52.274;8.040;2023-03-05T07:24:16;5.10;99.90
71367;DHT22;60030;52.274;8.040;2023-03-05T07:26:43;5.10;99.90
71367;DHT22;60030;52.274;8.040;2023-03-05T07:29:11;5.30;99.90
71367;DHT22;60030;52.274;8.040;2023-03-05T07:31:38;5.40;99.90
71367;DHT22;60030;52.274;8.040;2023-03-05T07:34:05;5.30;99.90
71367;DHT22;60030;52.274;8.040;2023-03-05T07:36:32;5.20;99.90
71367;DHT22;60030;52.274;8.040;2023-03-05T07:39:00;5.40;99.90
71367;DHT22;60030;52.274;8.040;2023-03-05T07:41:27;5.60;99.90
71367;DHT22;60030;52.274;8.040;2023-03-05T07:43:54;5.60;99.90
71367;DHT22;60030;52.274;8.040;2023-03-05T07:46:26;5.60;99.90
71367;DHT22;60030;52.274;8.040;2023-03-05T07:48:54;5.70;99.90
71367;DHT22;60030;52.274;8.040;2023-03-05T07:51:23;5.60;99.90
71367;DHT22;60030;52.274;8.040;2023-03-05T07:53:51;5.80;99.90
71367;DHT22;60030;52.274;8.040;2023-03-05T07:56:20;6.10;99.90
71367;DHT22;60030;52.274;8.040;2023-03-05T07:58:48;6.10;99.90
71367;DHT22;60030;52.274;8.040;2023-03-05T08:01:15;6.10;99.90
71367;DHT22;60030;52.274;8.040;2023-03-05T08:03:44;6.00;99.90
71367;DHT22;60030;52.274;8.040;2023-03-05T08:06:11;6.20;99.90
71367;DHT22;60030;52.274;8.040;2023-03-05T08:08:38;5.90;99.90
71367;DHT22;60030;52.274;8.040;2023-03-05T08:11:07;5.80;99.90
71367;DHT22;60030;52.274;8.040;2023-03-05T08:13:35;5.50;99.90
71367;DHT22;60030;52.274;8.040;2023-03-05T08:16:04;5.60;99.90
71367;DHT22;60030;52.274;8.040;2023-03-05T08:18:31;6.00;99.90
71367;DHT22;60030;52.274;8.040;2023-03-05T08:21:00;5.80;99.90
71367;DHT22;60030;52.274;8.040;2023-03-05T08:23:28;5.90;99.90
71367;DHT22;60030;52.274;8.040;2023-03-05T08:25:55;6.10;99.90
71367;DHT22;60030;52.274;8.040;2023-03-05T08:28:22;6.00;99.90
71367;DHT22;60030;52.274;8.040;2023-03-05T08:30:49;6.10;99.90
71367;DHT22;60030;52.274;8.040;2023-03-05T08:33:17;6.00;99.90
71367;DHT22;60030;52.274;8.040;2023-03-05T08:35:44;5.90;99.90
71367;DHT22;60030;52.274;8.040;2023-03-05T08:38:12;6.00;99.90
71367;DHT22;60030;52.274;8.040;2023-03-05T08:40:39;6.10;99.90
71367;DHT22;60030;52.274;8.040;2023-03-05T08:43:07;6.10;99.90
71367;DHT22;60030;52.274;8.040;2023-03-05T08:45:34;5.90;99.90
71367;DHT22;60030;52.274;8.040;2023-03-05T08:48:02;6.10;99.90
71367;DHT22;60030;52.274;8.040;2023-03-05T08:50:29;6.20;99.90
71367;DHT22;60030;52.274;8.040;2023-03-05T08:52:56;6.20;99.90
71367;DHT22;60030;52.274;8.040;2023-03-05T08:55:24;6.10;99.90
71367;DHT22;60030;52.274;8.040;2023-03-05T08:57:51;6.10;99.90
71367;DHT22;60030;52.274;8.040;2023-03-05T09:00:19;6.30;99.90
71367;DHT22;60030;52.274;8.040;2023-03-05T09:02:46;6.20;99.90
71367;DHT22;60030;52.274;8.040;2023-03-05T09:05:14;6.10;99.90
71367;DHT22;60030;52.274;8.040;2023-03-05T09:07:42;6.30;99.90
71367;DHT22;60030;52.274;8.040;2023-03-05T09:10:09;6.40;99.90
71367;DHT22;60030;52.274;8.040;2023-03-05T09:12:40;6.30;99.90
71367;DHT22;60030;52.274;8.040;2023-03-05T09:15:09;6.40;99.90
71367;DHT22;60030;52.274;8.040;2023-03-05T09:17:37;6.70;99.90
71367;DHT22;60030;52.274;8.040;2023-03-05T09:20:10;6.90;99.90
71367;DHT22;60030;52.274;8.040;2023-03-05T09:22:38;6.70;99.90
71367;DHT22;60030;52.274;8.040;2023-03-05T09:25:06;6.80;99.90
71367;DHT22;60030;52.274;8.040;2023-03-05T09:27:34;6.70;99.90
71367;DHT22;60030;52.274;8.040;2023-03-05T09:30:04;6.60;99.90
71367;DHT22;60030;52.274;8.040;2023-03-05T09:32:31;6.70;99.90
71367;DHT22;60030;52.274;8.040;2023-03-05T09:34:58;6.80;99.90
71367;DHT22;60030;52.274;8.040;2023-03-05T09:37:25;6.70;99.90
71367;DHT22;60030;52.274;8.040;2023-03-05T09:39:54;6.50;99.90
71367;DHT22;60030;52.274;8.040;2023-03-05T09:42:40;6.40;99.90
71367;DHT22;60030;52.274;8.040;2023-03-05T09:45:19;6.60;99.90
71367;DHT22;60030;52.274;8.040;2023-03-05T09:47:53;6.80;99.90
71367;DHT22;60030;52.274;8.040;2023-03-05T09:50:34;6.80;99.90
71367;DHT22;60030;52.274;8.040;2023-03-05T09:53:05;6.80;99.90
71367;DHT22;60030;52.274;8.040;2023-03-05T09:55:36;6.80;99.90
71367;DHT22;60030;52.274;8.040;2023-03-05T09:58:06;6.70;99.90
71367;DHT22;60030;52.274;8.040;2023-03-05T10:00:40;6.80;99.90
71367;DHT22;60030;52.274;8.040;2023-03-05T10:03:15;6.80;99.90
71367;DHT22;60030;52.274;8.040;2023-03-05T10:05:57;6.80;99.90
71367;DHT22;60030;52.274;8.040;2023-03-05T10:08:32;6.80;99.90
71367;DHT22;60030;52.274;8.040;2023-03-05T10:11:14;6.70;99.90
71367;DHT22;60030;52.274;8.040;2023-03-05T10:13:45;7.00;99.90
71367;DHT22;60030;52.274;8.040;2023-03-05T10:16:30;7.10;99.90
71367;DHT22;60030;52.274;8.040;2023-03-05T10:19:04;7.70;99.90
71367;DHT22;60030;52.274;8.040;2023-03-05T10:21:39;8.10;99.90
71367;DHT22;60030;52.274;8.040;2023-03-05T10:24:13;7.90;99.90
71367;DHT22;60030;52.274;8.040;2023-03-05T10:26:55;7.90;99.90
71367;DHT22;60030;52.274;8.040;2023-03-05T10:29:45;7.90;99.90
71367;DHT22;60030;52.274;8.040;2023-03-05T10:32:35;8.00;99.90
71367;DHT22;60030;52.274;8.040;2023-03-05T10:38:16;7.90;99.90
71367;DHT22;60030;52.274;8.040;2023-03-05T10:40:50;7.70;99.90
71367;DHT22;60030;52.274;8.040;2023-03-05T10:43:23;7.60;99.90
71367;DHT22;60030;52.274;8.040;2023-03-05T10:45:53;7.80;99.90
71367;DHT22;60030;52.274;8.040;2023-03-05T10:48:27;8.00;99.90
71367;DHT22;60030;52.274;8.040;2023-03-05T10:51:00;8.30;99.90
71367;DHT22;60030;52.274;8.040;2023-03-05T10:53:31;8.30;99.90
71367;DHT22;60030;52.274;8.040;2023-03-05T10:56:02;8.50;99.90
71367;DHT22;60030;52.274;8.040;2023-03-05T10:58:29;8.60;99.90
71367;DHT22;60030;52.274;8.040;2023-03-05T11:01:01;8.50;99.90
71367;DHT22;60030;52.274;8.040;2023-03-05T11:03:53;8.10;99.90
71367;DHT22;60030;52.274;8.040;2023-03-05T11:06:33;8.00;99.90
71367;DHT22;60030;52.274;8.040;2023-03-05T11:09:21;8.10;99.90
71367;DHT22;60030;52.274;8.040;2023-03-05T11:12:10;8.30;99.90
71367;DHT22;60030;52.274;8.040;2023-03-05T11:14:39;8.20;99.90
71367;DHT22;60030;52.274;8.040;2023-03-05T11:17:26;8.10;99.90
71367;DHT22;60030;52.274;8.040;2023-03-05T11:19:55;8.00;99.90
71367;DHT22;60030;52.274;8.040;2023-03-05T11:22:24;7.70;99.90
71367;DHT22;60030;52.274;8.040;2023-03-05T11:25:10;7.80;99.90
71367;DHT22;60030;52.274;8.040;2023-03-05T11:27:45;8.10;99.90
71367;DHT22;60030;52.274;8.040;2023-03-05T11:30:23;8.20;99.90
71367;DHT22;60030;52.274;8.040;2023-03-05T11:33:06;8.60;99.90
71367;DHT22;60030;52.274;8.040;2023-03-05T11:35:36;8.80;99.90
71367;DHT22;60030;52.274;8.040;2023-03-05T11:38:09;8.60;99.90
71367;DHT22;60030;52.274;8.040;2023-03-05T11:40:40;8.40;99.90
71367;DHT22;60030;52.274;8.040;2023-03-05T11:43:14;8.40;99.90
71367;DHT22;60030;52.274;8.040;2023-03-05T11:45:42;8.30;99.90
71367;DHT22;60030;52.274;8.040;2023-03-05T11:48:15;8.30;99.90
71367;DHT22;60030;52.274;8.040;2023-03-05T11:50:48;8.20;99.90
71367;DHT22;60030;52.274;8.040;2023-03-05T11:53:20;8.00;99.90
71367;DHT22;60030;52.274;8.040;2023-03-05T11:55:51;8.20;99.90
71367;DHT22;60030;52.274;8.040;2023-03-05T11:58:25;8.50;99.90
71367;DHT22;60030;52.274;8.040;2023-03-05T12:00:54;8.80;99.90
71367;DHT22;60030;52.274;8.040;2023-03-05T12:03:24;8.70;99.90
71367;DHT22;60030;52.274;8.040;2023-03-05T12:05:58;8.90;99.90
71367;DHT22;60030;52.274;8.040;2023-03-05T12:08:30;9.00;99.90
71367;DHT22;60030;52.274;8.040;2023-03-05T12:11:00;9.20;99.90
71367;DHT22;60030;52.274;8.040;2023-03-05T12:13:34;9.20;99.90
71367;DHT22;60030;52.274;8.040;2023-03-05T12:16:08;9.10;99.90
71367;DHT22;60030;52.274;8.040;2023-03-05T12:18:46;9.50;99.90
71367;DHT22;60030;52.274;8.040;2023-03-05T12:21:27;9.60;99.90
71367;DHT22;60030;52.274;8.040;2023-03-05T12:23:58;9.70;99.90
71367;DHT22;60030;52.274;8.040;2023-03-05T12:26:55;9.70;99.90
71367;DHT22;60030;52.274;8.040;2023-03-05T12:29:39;9.30;99.90
71367;DHT22;60030;52.274;8.040;2023-03-05T12:35:22;9.70;99.90
71367;DHT22;60030;52.274;8.040;2023-03-05T12:40:46;10.20;99.90
71367;DHT22;60030;52.274;8.040;2023-03-05T12:43:30;10.40;99.90
71367;DHT22;60030;52.274;8.040;2023-03-05T12:46:23;10.10;99.90
71367;DHT22;60030;52.274;8.040;2023-03-05T12:48:51;10.00;99.90
71367;DHT22;60030;52.274;8.040;2023-03-05T12:51:33;10.50;99.90
71367;DHT22;60030;52.274;8.040;2023-03-05T12:57:12;10.30;99.90
71367;DHT22;60030;52.274;8.040;2023-03-05T12:59:43;10.20;99.90
71367;DHT22;60030;52.274;8.040;2023-03-05T13:02:21;10.20;99.90
71367;DHT22;60030;52.274;8.040;2023-03-05T13:04:49;10.50;99.90
71367;DHT22;60030;52.274;8.040;2023-03-05T13:07:18;10.20;99.90
71367;DHT22;60030;52.274;8.040;2023-03-05T13:09:54;10.40;99.90
71367;DHT22;60030;52.274;8.040;2023-03-05T13:12:22;10.50;99.90
71367;DHT22;60030;52.274;8.040;2023-03-05T13:14:57;11.00;99.90
71367;DHT22;60030;52.274;8.040;2023-03-05T13:17:33;10.90;99.40
71367;DHT22;60030;52.274;8.040;2023-03-05T13:20:03;10.10;99.90
71367;DHT22;60030;52.274;8.040;2023-03-05T13:22:31;10.40;99.90
71367;DHT22;60030;52.274;8.040;2023-03-05T13:25:16;10.20;99.90
71367;DHT22;60030;52.274;8.040;2023-03-05T13:27:45;10.20;98.70
71367;DHT22;60030;52.274;8.040;2023-03-05T13:30:21;9.90;98.20
71367;DHT22;60030;52.274;8.040;2023-03-05T13:32:51;9.50;99.90
71367;DHT22;60030;52.274;8.040;2023-03-05T13:35:19;9.30;99.90
71367;DHT22;60030;52.274;8.040;2023-03-05T13:37:47;9.20;99.90
71367;DHT22;60030;52.274;8.040;2023-03-05T13:40:22;9.20;99.90
71367;DHT22;60030;52.274;8.040;2023-03-05T13:42:50;9.20;99.90
71367;DHT22;60030;52.274;8.040;2023-03-05T13:45:24;9.10;99.90
71367;DHT22;60030;52.274;8.040;2023-03-05T13:47:54;8.90;99.90
71367;DHT22;60030;52.274;8.040;2023-03-05T13:50:23;9.00;99.90
71367;DHT22;60030;52.274;8.040;2023-03-05T13:52:50;8.70;99.90
71367;DHT22;60030;52.274;8.040;2023-03-05T13:55:19;8.70;99.90
71367;DHT22;60030;52.274;8.040;2023-03-05T13:57:48;8.90;99.90
71367;DHT22;60030;52.274;8.040;2023-03-05T14:00:28;8.70;99.90
71367;DHT22;60030;52.274;8.040;2023-03-05T14:02:58;8.70;99.90
71367;DHT22;60030;52.274;8.040;2023-03-05T14:05:26;8.50;99.90
71367;DHT22;60030;52.274;8.040;2023-03-05T14:07:53;8.50;99.90
71367;DHT22;60030;52.274;8.040;2023-03-05T14:10:32;8.60;99.90
71367;DHT22;60030;52.274;8.040;2023-03-05T14:13:02;8.60;99.90
71367;DHT22;60030;52.274;8.040;2023-03-05T14:15:31;8.60;99.90
71367;DHT22;60030;52.274;8.040;2023-03-05T14:18:16;8.50;99.90
71367;DHT22;60030;52.274;8.040;2023-03-05T14:21:11;8.50;99.90
71367;DHT22;60030;52.274;8.040;2023-03-05T14:23:41;8.90;99.90
71367;DHT22;60030;52.274;8.040;2023-03-05T14:26:27;9.00;99.90
71367;DHT22;60030;52.274;8.040;2023-03-05T14:28:58;9.90;99.90
71367;DHT22;60030;52.274;8.040;2023-03-05T14:31:27;9.80;99.90
71367;DHT22;60030;52.274;8.040;2023-03-05T14:33:59;10.10;99.90
71367;DHT22;60030;52.274;8.040;2023-03-05T14:36:28;10.30;99.40
71367;DHT22;60030;52.274;8.040;2023-03-05T14:38:56;10.20;99.90
71367;DHT22;60030;52.274;8.040;2023-03-05T14:41:38;9.80;99.90
71367;DHT22;60030;52.274;8.040;2023-03-05T14:44:11;9.40;99.90
71367;DHT22;60030;52.274;8.040;2023-03-05T14:46:39;9.20;99.90
71367;DHT22;60030;52.274;8.040;2023-03-05T14:49:06;9.20;99.90
71367;DHT22;60030;52.274;8.040;2023-03-05T14:51:37;9.00;99.90
71367;DHT22;60030;52.274;8.040;2023-03-05T14:54:05;9.00;99.90
71367;DHT22;60030;52.274;8.040;2023-03-05T14:56:32;8.80;99.90
71367;DHT22;60030;52.274;8.040;2023-03-05T14:59:01;8.60;99.90
71367;DHT22;60030;52.274;8.040;2023-03-05T15:01:28;8.70;99.90
71367;DHT22;60030;52.274;8.040;2023-03-05T15:03:55;8.70;99.90
71367;DHT22;60030;52.274;8.040;2023-03-05T15:06:27;8.50;99.90
71367;DHT22;60030;52.274;8.040;2023-03-05T15:08:56;8.50;99.90
71367;DHT22;60030;52.274;8.040;2023-03-05T15:11:23;8.70;99.90
71367;DHT22;60030;52.274;8.040;2023-03-05T15:13:50;8.90;99.90
71367;DHT22;60030;52.274;8.040;2023-03-05T15:16:19;8.80;99.90
71367;DHT22;60030;52.274;8.040;2023-03-05T15:18:46;8.80;99.90
71367;DHT22;60030;52.274;8.040;2023-03-05T15:21:14;8.80;99.90
71367;DHT22;60030;52.274;8.040;2023-03-05T15:23:41;8.60;99.90
71367;DHT22;60030;52.274;8.040;2023-03-05T15:26:12;8.50;99.90
71367;DHT22;60030;52.274;8.040;2023-03-05T15:28:40;8.30;99.90
71367;DHT22;60030;52.274;8.040;2023-03-05T15:31:08;8.20;99.90
71367;DHT22;60030;52.274;8.040;2023-03-05T15:33:36;8.20;99.90
71367;DHT22;60030;52.274;8.040;2023-03-05T15:36:04;7.90;99.90
71367;DHT22;60030;52.274;8.040;2023-03-05T15:38:31;7.90;99.90
71367;DHT22;60030;52.274;8.040;2023-03-05T15:40:58;8.00;99.90
71367;DHT22;60030;52.274;8.040;2023-03-05T15:43:26;8.00;99.90
71367;DHT22;60030;52.274;8.040;2023-03-05T15:45:53;8.10;99.90
71367;DHT22;60030;52.274;8.040;2023-03-05T15:48:20;8.20;99.90
71367;DHT22;60030;52.274;8.040;2023-03-05T15:50:48;8.20;99.90
71367;DHT22;60030;52.274;8.040;2023-03-05T15:53:16;8.10;99.90
71367;DHT22;60030;52.274;8.040;2023-03-05T15:55:43;8.20;99.90
71367;DHT22;60030;52.274;8.040;2023-03-05T15:58:13;8.20;99.90
71367;DHT22;60030;52.274;8.040;2023-03-05T16:00:41;8.00;99.90
71367;DHT22;60030;52.274;8.040;2023-03-05T16:03:09;8.10;99.90
71367;DHT22;60030;52.274;8.040;2023-03-05T16:05:36;8.00;99.90
71367;DHT22;60030;52.274;8.040;2023-03-05T16:08:05;8.00;99.90
71367;DHT22;60030;52.274;8.040;2023-03-05T16:10:33;8.00;99.90
71367;DHT22;60030;52.274;8.040;2023-03-05T16:13:06;7.90;99.90
71367;DHT22;60030;52.274;8.040;2023-03-05T16:15:37;7.90;99.90